sensor_id;sensor_type;location;lat;lon;timestamp;temperature;humidity
32865;DHT22;19219;44.500;11.188;2022-08-19T00:02:12;21.60;99.90
32865;DHT22;19219;44.500;11.188;2022-08-19T00:04:37;21.60;99.90
32865;DHT22;19219;44.500;11.188;2022-08-19T00:07:06;21.60;99.90
32865;DHT22;19219;44.500;11.188;2022-08-19T00:09:32;21.60;99.90
32865;DHT22;19219;44.500;11.188;2022-08-19T00:11:59;21.40;99.90
32865;DHT22;19219;44.500;11.188;2022-08-19T00:14:26;21.40;99.90
32865;DHT22;19219;44.500;11.188;2022-08-19T00:16:53;21.50;99.90
32865;DHT22;19219;44.500;11.188;2022-08-19T00:19:21;21.50;99.90
32865;DHT22;19219;44.500;11.188;2022-08-19T00:21:46;21.60;99.90
32865;DHT22;19219;44.500;11.188;2022-08-19T00:24:13;21.70;99.90
32865;DHT22;19219;44.500;11.188;2022-08-19T00:26:41;21.60;99.90
32865;DHT22;19219;44.500;11.188;2022-08-19T00:29:09;21.70;99.90
32865;DHT22;19219;44.500;11.188;2022-08-19T00:31:36;21.90;99.90
32865;DHT22;19219;44.500;11.188;2022-08-19T00:34:02;21.70;99.90
32865;DHT22;19219;44.500;11.188;2022-08-19T00:36:28;21.70;99.90
32865;DHT22;19219;44.500;11.188;2022-08-19T00:38:54;21.80;99.90
32865;DHT22;19219;44.500;11.188;2022-08-19T00:41:21;21.70;99.90
32865;DHT22;19219;44.500;11.188;2022-08-19T00:44:10;21.60;99.90
32865;DHT22;19219;44.500;11.188;2022-08-19T00:46:40;21.70;99.90
32865;DHT22;19219;44.500;11.188;2022-08-19T00:49:34;21.70;99.90
32865;DHT22;19219;44.500;11.188;2022-08-19T00:52:32;21.70;99.90
32865;DHT22;19219;44.500;11.188;2022-08-19T00:54:59;21.80;99.90
32865;DHT22;19219;44.500;11.188;2022-08-19T00:57:32;21.70;99.90
32865;DHT22;19219;44.500;11.188;2022-08-19T01:00:00;21.70;99.90
32865;DHT22;19219;44.500;11.188;2022-08-19T01:02:28;21.60;99.90
32865;DHT22;19219;44.500;11.188;2022-08-19T01:04:54;21.60;99.90
32865;DHT22;19219;44.500;11.188;2022-08-19T01:07:21;21.60;99.90
32865;DHT22;19219;44.500;11.188;2022-08-19T01:09:47;21.60;99.90
32865;DHT22;19219;44.500;11.188;2022-08-19T01:12:13;21.60;99.90
32865;DHT22;19219;44.500;11.188;2022-08-19T01:14:40;21.60;99.90
32865;DHT22;19219;44.500;11.188;2022-08-19T01:17:08;21.50;99.90
32865;DHT22;19219;44.500;11.188;2022-08-19T01:19:38;21.50;99.90
32865;DHT22;19219;44.500;11.188;2022-08-19T01:22:08;21.50;99.90
32865;DHT22;19219;44.500;11.188;2022-08-19T01:24:36;21.50;99.90
32865;DHT22;19219;44.500;11.188;2022-08-19T01:27:04;21.40;99.90
32865;DHT22;19219;44.500;11.188;2022-08-19T01:29:30;21.50;99.90
32865;DHT22;19219;44.500;11.188;2022-08-19T01:31:56;21.50;99.90
32865;DHT22;19219;44.500;11.188;2022-08-19T01:34:22;21.40;99.90
32865;DHT22;19219;44.500;11.188;2022-08-19T01:36:49;21.40;99.90
32865;DHT22;19219;44.500;11.188;2022-08-19T01:39:18;21.40;99.90
32865;DHT22;19219;44.500;11.188;2022-08-19T01:41:45;21.40;99.90
32865;DHT22;19219;44.500;11.188;2022-08-19T01:44:11;21.30;99.90
32865;DHT22;19219;44.500;11.188;2022-08-19T01:46:37;21.30;99.90
32865;DHT22;19219;44.500;11.188;2022-08-19T01:49:04;21.30;99.90
32865;DHT22;19219;44.500;11.188;2022-08-19T01:51:31;21.30;99.90
32865;DHT22;19219;44.500;11.188;2022-08-19T01:53:57;21.30;99.90
32865;DHT22;19219;44.500;11.188;2022-08-19T01:56:24;21.20;99.90
32865;DHT22;19219;44.500;11.188;2022-08-19T01:58:57;21.20;99.90
32865;DHT22;19219;44.500;11.188;2022-08-19T02:01:23;21.10;99.90
32865;DHT22;19219;44.500;11.188;2022-08-19T02:03:49;21.10;99.90
32865;DHT22;19219;44.500;11.188;2022-08-19T02:06:15;21.10;99.90
32865;DHT22;19219;44.500;11.188;2022-08-19T02:08:42;21.10;99.90
32865;DHT22;19219;44.500;11.188;2022-08-19T02:11:25;21.20;99.90
32865;DHT22;19219;44.500;11.188;2022-08-19T02:13:53;21.20;99.90
32865;DHT22;19219;44.500;11.188;2022-08-19T02:16:19;21.10;99.90
32865;DHT22;19219;44.500;11.188;2022-08-19T02:18:47;21.10;99.90
32865;DHT22;19219;44.500;11.188;2022-08-19T02:21:15;21.10;99.90
32865;DHT22;19219;44.500;11.188;2022-08-19T02:23:42;21.10;99.90
32865;DHT22;19219;44.500;11.188;2022-08-19T02:26:07;21.00;99.90
32865;DHT22;19219;44.500;11.188;2022-08-19T02:28:33;21.00;99.90
32865;DHT22;19219;44.500;11.188;2022-08-19T02:30:59;20.90;99.90
32865;DHT22;19219;44.500;11.188;2022-08-19T02:33:26;20.80;99.90
32865;DHT22;19219;44.500;11.188;2022-08-19T02:35:52;20.80;99.90
32865;DHT22;19219;44.500;11.188;2022-08-19T02:38:17;20.80;99.90
32865;DHT22;19219;44.500;11.188;2022-08-19T02:40:58;20.70;99.90
32865;DHT22;19219;44.500;11.188;2022-08-19T02:43:25;20.60;99.90
32865;DHT22;19219;44.500;11.188;2022-08-19T02:45:52;20.70;99.90
32865;DHT22;19219;44.500;11.188;2022-08-19T02:48:20;20.70;99.90
32865;DHT22;19219;44.500;11.188;2022-08-19T02:50:46;20.70;99.90
32865;DHT22;19219;44.500;11.188;2022-08-19T02:53:12;20.80;99.90
32865;DHT22;19219;44.500;11.188;2022-08-19T02:55:46;20.80;99.90
32865;DHT22;19219;44.500;11.188;2022-08-19T02:58:13;20.80;99.90
32865;DHT22;19219;44.500;11.188;2022-08-19T03:00:48;20.80;99.90
32865;DHT22;19219;44.500;11.188;2022-08-19T03:03:15;20.90;99.90
32865;DHT22;19219;44.500;11.188;2022-08-19T03:05:41;20.90;99.90
32865;DHT22;19219;44.500;11.188;2022-08-19T03:08:08;20.90;99.90
32865;DHT22;19219;44.500;11.188;2022-08-19T03:10:47;20.90;99.90
32865;DHT22;19219;44.500;11.188;2022-08-19T03:13:15;20.90;99.90
32865;DHT22;19219;44.500;11.188;2022-08-19T03:15:44;20.90;99.90
32865;DHT22;19219;44.500;11.188;2022-08-19T03:18:10;20.90;99.90
32865;DHT22;19219;44.500;11.188;2022-08-19T03:20:48;21.00;99.90
32865;DHT22;19219;44.500;11.188;2022-08-19T03:23:14;21.00;99.90
32865;DHT22;19219;44.500;11.188;2022-08-19T03:25:43;21.10;99.90
32865;DHT22;19219;44.500;11.188;2022-08-19T03:28:11;21.10;99.90
32865;DHT22;19219;44.500;11.188;2022-08-19T03:30:39;21.10;99.90
32865;DHT22;19219;44.500;11.188;2022-08-19T03:33:09;21.10;99.90
32865;DHT22;19219;44.500;11.188;2022-08-19T03:35:37;21.10;99.90
32865;DHT22;19219;44.500;11.188;2022-08-19T03:38:06;21.00;99.90
32865;DHT22;19219;44.500;11.188;2022-08-19T03:40:32;21.00;99.90
32865;DHT22;19219;44.500;11.188;2022-08-19T03:43:01;21.00;99.90
32865;DHT22;19219;44.500;11.188;2022-08-19T03:45:27;21.00;99.90
32865;DHT22;19219;44.500;11.188;2022-08-19T03:47:55;21.00;99.90
32865;DHT22;19219;44.500;11.188;2022-08-19T03:50:20;21.00;99.90
32865;DHT22;19219;44.500;11.188;2022-08-19T03:52:50;21.00;99.90
32865;DHT22;19219;44.500;11.188;2022-08-19T03:55:17;21.00;99.90
32865;DHT22;19219;44.500;11.188;2022-08-19T03:57:42;21.00;99.90
32865;DHT22;19219;44.500;11.188;2022-08-19T04:00:09;21.10;99.90
32865;DHT22;19219;44.500;11.188;2022-08-19T04:02:34;21.10;99.90
32865;DHT22;19219;44.500;11.188;2022-08-19T04:05:00;21.10;99.90
32865;DHT22;19219;44.500;11.188;2022-08-19T04:07:26;21.10;99.90
32865;DHT22;19219;44.500;11.188;2022-08-19T04:09:52;21.10;99.90
32865;DHT22;19219;44.500;11.188;2022-08-19T04:12:18;21.00;99.90
32865;DHT22;19219;44.500;11.188;2022-08-19T04:14:46;21.10;99.90
32865;DHT22;19219;44.500;11.188;2022-08-19T04:17:12;21.10;99.90
32865;DHT22;19219;44.500;11.188;2022-08-19T04:19:39;21.20;99.90
32865;DHT22;19219;44.500;11.188;2022-08-19T04:22:05;21.20;99.90
32865;DHT22;19219;44.500;11.188;2022-08-19T04:24:32;21.20;99.90
32865;DHT22;19219;44.500;11.188;2022-08-19T04:26:59;21.30;99.90
32865;DHT22;19219;44.500;11.188;2022-08-19T04:29:25;21.30;99.90
32865;DHT22;19219;44.500;11.188;2022-08-19T04:31:54;21.30;99.90
32865;DHT22;19219;44.500;11.188;2022-08-19T04:34:21;21.40;99.90
32865;DHT22;19219;44.500;11.188;2022-08-19T04:36:51;21.40;99.90
32865;DHT22;19219;44.500;11.188;2022-08-19T04:39:19;21.40;99.90
32865;DHT22;19219;44.500;11.188;2022-08-19T04:41:46;21.40;99.90
32865;DHT22;19219;44.500;11.188;2022-08-19T04:44:34;21.40;99.90
32865;DHT22;19219;44.500;11.188;2022-08-19T04:47:00;21.50;99.90
32865;DHT22;19219;44.500;11.188;2022-08-19T04:49:26;21.50;99.90
32865;DHT22;19219;44.500;11.188;2022-08-19T04:51:53;21.60;99.90
32865;DHT22;19219;44.500;11.188;2022-08-19T04:54:21;21.60;99.90
32865;DHT22;19219;44.500;11.188;2022-08-19T04:56:48;21.60;99.90
32865;DHT22;19219;44.500;11.188;2022-08-19T04:59:15;21.60;99.90
32865;DHT22;19219;44.500;11.188;2022-08-19T05:01:42;21.60;99.90
32865;DHT22;19219;44.500;11.188;2022-08-19T05:04:08;21.60;99.90
32865;DHT22;19219;44.500;11.188;2022-08-19T05:06:35;21.60;99.90
32865;DHT22;19219;44.500;11.188;2022-08-19T05:09:03;21.60;99.90
32865;DHT22;19219;44.500;11.188;2022-08-19T05:11:33;21.60;99.90
32865;DHT22;19219;44.500;11.188;2022-08-19T05:13:59;21.60;99.90
32865;DHT22;19219;44.500;11.188;2022-08-19T05:16:26;21.50;99.90
32865;DHT22;19219;44.500;11.188;2022-08-19T05:18:52;21.50;99.90
32865;DHT22;19219;44.500;11.188;2022-08-19T05:21:38;21.50;99.90
32865;DHT22;19219;44.500;11.188;2022-08-19T05:24:23;21.40;99.90
32865;DHT22;19219;44.500;11.188;2022-08-19T05:26:50;21.20;99.90
32865;DHT22;19219;44.500;11.188;2022-08-19T05:29:18;21.10;99.90
32865;DHT22;19219;44.500;11.188;2022-08-19T05:31:45;21.00;99.90
32865;DHT22;19219;44.500;11.188;2022-08-19T05:34:12;20.90;99.90
32865;DHT22;19219;44.500;11.188;2022-08-19T05:36:42;20.80;99.90
32865;DHT22;19219;44.500;11.188;2022-08-19T05:39:14;20.80;99.90
32865;DHT22;19219;44.500;11.188;2022-08-19T05:41:49;20.60;99.90
32865;DHT22;19219;44.500;11.188;2022-08-19T05:44:16;20.40;99.90
32865;DHT22;19219;44.500;11.188;2022-08-19T05:46:45;20.40;99.90
32865;DHT22;19219;44.500;11.188;2022-08-19T05:49:15;20.40;99.90
32865;DHT22;19219;44.500;11.188;2022-08-19T05:51:42;20.40;99.90
32865;DHT22;19219;44.500;11.188;2022-08-19T05:54:08;20.40;99.90
32865;DHT22;19219;44.500;11.188;2022-08-19T05:56:35;20.40;99.90
32865;DHT22;19219;44.500;11.188;2022-08-19T05:59:04;20.40;99.90
32865;DHT22;19219;44.500;11.188;2022-08-19T06:01:34;20.40;99.90
32865;DHT22;19219;44.500;11.188;2022-08-19T06:04:00;20.40;99.90
32865;DHT22;19219;44.500;11.188;2022-08-19T06:06:25;20.40;99.90
32865;DHT22;19219;44.500;11.188;2022-08-19T06:08:51;20.40;99.90
32865;DHT22;19219;44.500;11.188;2022-08-19T06:11:31;20.40;99.90
32865;DHT22;19219;44.500;11.188;2022-08-19T06:14:04;20.40;99.90
32865;DHT22;19219;44.500;11.188;2022-08-19T06:16:30;20.40;99.90
32865;DHT22;19219;44.500;11.188;2022-08-19T06:19:00;20.30;99.90
32865;DHT22;19219;44.500;11.188;2022-08-19T06:21:28;20.30;99.90
32865;DHT22;19219;44.500;11.188;2022-08-19T06:23:56;20.30;99.90
32865;DHT22;19219;44.500;11.188;2022-08-19T06:26:22;20.20;99.90
32865;DHT22;19219;44.500;11.188;2022-08-19T06:28:49;20.20;99.90
32865;DHT22;19219;44.500;11.188;2022-08-19T06:31:18;20.20;99.90
32865;DHT22;19219;44.500;11.188;2022-08-19T06:33:46;20.20;99.90
32865;DHT22;19219;44.500;11.188;2022-08-19T06:36:26;20.10;99.90
32865;DHT22;19219;44.500;11.188;2022-08-19T06:38:53;20.20;99.90
32865;DHT22;19219;44.500;11.188;2022-08-19T06:41:19;20.20;99.90
32865;DHT22;19219;44.500;11.188;2022-08-19T06:43:44;20.10;99.90
32865;DHT22;19219;44.500;11.188;2022-08-19T06:46:15;20.10;99.90
32865;DHT22;19219;44.500;11.188;2022-08-19T06:48:41;20.10;99.90
32865;DHT22;19219;44.500;11.188;2022-08-19T06:51:07;20.20;99.90
32865;DHT22;19219;44.500;11.188;2022-08-19T06:53:33;20.20;99.90
32865;DHT22;19219;44.500;11.188;2022-08-19T06:55:59;20.10;99.90
32865;DHT22;19219;44.500;11.188;2022-08-19T06:58:31;20.10;99.90
32865;DHT22;19219;44.500;11.188;2022-08-19T07:01:02;20.10;99.90
32865;DHT22;19219;44.500;11.188;2022-08-19T07:03:33;20.00;99.90
32865;DHT22;19219;44.500;11.188;2022-08-19T07:06:08;19.90;99.90
32865;DHT22;19219;44.500;11.188;2022-08-19T07:08:35;19.90;99.90
32865;DHT22;19219;44.500;11.188;2022-08-19T07:11:09;19.80;99.90
32865;DHT22;19219;44.500;11.188;2022-08-19T07:13:36;19.80;99.90
32865;DHT22;19219;44.500;11.188;2022-08-19T07:16:06;19.90;99.90
32865;DHT22;19219;44.500;11.188;2022-08-19T07:18:32;19.90;99.90
32865;DHT22;19219;44.500;11.188;2022-08-19T07:21:10;20.00;99.90
32865;DHT22;19219;44.500;11.188;2022-08-19T07:23:36;19.90;99.90
32865;DHT22;19219;44.500;11.188;2022-08-19T07:26:10;20.00;99.90
32865;DHT22;19219;44.500;11.188;2022-08-19T07:28:36;20.30;99.90
32865;DHT22;19219;44.500;11.188;2022-08-19T07:31:10;21.40;99.90
32865;DHT22;19219;44.500;11.188;2022-08-19T07:33:36;22.80;99.90
32865;DHT22;19219;44.500;11.188;2022-08-19T07:36:07;24.50;99.90
32865;DHT22;19219;44.500;11.188;2022-08-19T07:38:34;24.90;99.90
32865;DHT22;19219;44.500;11.188;2022-08-19T07:41:00;24.80;99.90
32865;DHT22;19219;44.500;11.188;2022-08-19T07:43:28;24.10;99.90
32865;DHT22;19219;44.500;11.188;2022-08-19T07:45:54;24.00;99.90
32865;DHT22;19219;44.500;11.188;2022-08-19T07:48:26;24.20;99.90
32865;DHT22;19219;44.500;11.188;2022-08-19T07:50:57;24.80;99.90
32865;DHT22;19219;44.500;11.188;2022-08-19T07:53:24;24.50;99.90
32865;DHT22;19219;44.500;11.188;2022-08-19T07:55:51;24.00;99.90
32865;DHT22;19219;44.500;11.188;2022-08-19T07:58:19;23.60;99.90
32865;DHT22;19219;44.500;11.188;2022-08-19T08:00:47;23.10;99.90
32865;DHT22;19219;44.500;11.188;2022-08-19T08:03:15;23.00;99.90
32865;DHT22;19219;44.500;11.188;2022-08-19T08:05:41;23.10;99.90
32865;DHT22;19219;44.500;11.188;2022-08-19T08:08:26;23.10;99.90
32865;DHT22;19219;44.500;11.188;2022-08-19T08:11:01;23.10;99.90
32865;DHT22;19219;44.500;11.188;2022-08-19T08:13:27;23.50;99.90
32865;DHT22;19219;44.500;11.188;2022-08-19T08:15:53;23.90;99.90
32865;DHT22;19219;44.500;11.188;2022-08-19T08:18:18;24.40;99.90
32865;DHT22;19219;44.500;11.188;2022-08-19T08:20:46;24.60;99.90
32865;DHT22;19219;44.500;11.188;2022-08-19T08:23:11;25.00;99.90
32865;DHT22;19219;44.500;11.188;2022-08-19T08:25:55;25.30;99.90
32865;DHT22;19219;44.500;11.188;2022-08-19T08:28:22;25.50;99.90
32865;DHT22;19219;44.500;11.188;2022-08-19T08:30:49;25.80;99.90
32865;DHT22;19219;44.500;11.188;2022-08-19T08:33:23;26.20;99.90
32865;DHT22;19219;44.500;11.188;2022-08-19T08:35:49;26.30;99.90
32865;DHT22;19219;44.500;11.188;2022-08-19T08:38:15;26.00;99.90
32865;DHT22;19219;44.500;11.188;2022-08-19T08:40:53;25.70;99.90
32865;DHT22;19219;44.500;11.188;2022-08-19T08:43:37;26.00;99.90
32865;DHT22;19219;44.500;11.188;2022-08-19T08:46:16;26.50;99.90
32865;DHT22;19219;44.500;11.188;2022-08-19T08:48:57;27.00;99.90
32865;DHT22;19219;44.500;11.188;2022-08-19T08:51:38;27.40;99.90
32865;DHT22;19219;44.500;11.188;2022-08-19T08:54:08;27.80;99.90
32865;DHT22;19219;44.500;11.188;2022-08-19T08:56:38;27.30;99.90
32865;DHT22;19219;44.500;11.188;2022-08-19T08:59:10;26.90;99.90
32865;DHT22;19219;44.500;11.188;2022-08-19T09:01:36;26.50;99.90
32865;DHT22;19219;44.500;11.188;2022-08-19T09:04:05;26.20;99.90
32865;DHT22;19219;44.500;11.188;2022-08-19T09:09:40;25.30;99.90
32865;DHT22;19219;44.500;11.188;2022-08-19T09:12:45;25.20;99.90
32865;DHT22;19219;44.500;11.188;2022-08-19T09:15:15;25.10;99.90
32865;DHT22;19219;44.500;11.188;2022-08-19T09:17:42;25.00;99.90
32865;DHT22;19219;44.500;11.188;2022-08-19T09:20:23;25.00;99.90
32865;DHT22;19219;44.500;11.188;2022-08-19T09:22:49;25.10;99.90
32865;DHT22;19219;44.500;11.188;2022-08-19T09:25:20;25.00;99.90
32865;DHT22;19219;44.500;11.188;2022-08-19T09:27:48;24.80;99.90
32865;DHT22;19219;44.500;11.188;2022-08-19T09:30:17;24.80;99.90
32865;DHT22;19219;44.500;11.188;2022-08-19T09:32:44;24.90;99.90
32865;DHT22;19219;44.500;11.188;2022-08-19T09:35:10;25.30;99.90
32865;DHT22;19219;44.500;11.188;2022-08-19T09:37:36;26.00;99.90
32865;DHT22;19219;44.500;11.188;2022-08-19T09:40:03;26.30;99.90
32865;DHT22;19219;44.500;11.188;2022-08-19T09:42:28;26.30;99.90
32865;DHT22;19219;44.500;11.188;2022-08-19T09:44:54;26.00;99.90
32865;DHT22;19219;44.500;11.188;2022-08-19T09:47:20;25.60;99.90
32865;DHT22;19219;44.500;11.188;2022-08-19T09:49:45;25.10;99.90
32865;DHT22;19219;44.500;11.188;2022-08-19T09:52:12;25.20;99.90
32865;DHT22;19219;44.500;11.188;2022-08-19T09:54:39;25.60;99.90
32865;DHT22;19219;44.500;11.188;2022-08-19T09:57:05;26.20;99.90
32865;DHT22;19219;44.500;11.188;2022-08-19T09:59:30;26.70;99.90
32865;DHT22;19219;44.500;11.188;2022-08-19T10:01:56;27.10;99.90
32865;DHT22;19219;44.500;11.188;2022-08-19T10:04:22;27.30;99.90
32865;DHT22;19219;44.500;11.188;2022-08-19T10:06:49;27.50;99.90
32865;DHT22;19219;44.500;11.188;2022-08-19T10:09:16;27.60;99.90
32865;DHT22;19219;44.500;11.188;2022-08-19T10:11:44;27.70;99.90
32865;DHT22;19219;44.500;11.188;2022-08-19T10:14:14;27.60;99.90
32865;DHT22;19219;44.500;11.188;2022-08-19T10:16:40;27.60;99.90
32865;DHT22;19219;44.500;11.188;2022-08-19T10:19:07;27.30;99.90
32865;DHT22;19219;44.500;11.188;2022-08-19T10:21:34;27.00;99.90
32865;DHT22;19219;44.500;11.188;2022-08-19T10:24:03;26.90;99.90
32865;DHT22;19219;44.500;11.188;2022-08-19T10:26:34;26.80;99.90
32865;DHT22;19219;44.500;11.188;2022-08-19T10:29:01;26.50;99.90
32865;DHT22;19219;44.500;11.188;2022-08-19T10:31:29;26.30;99.90
32865;DHT22;19219;44.500;11.188;2022-08-19T10:33:56;26.40;99.90
32865;DHT22;19219;44.500;11.188;2022-08-19T10:36:34;26.50;99.90
32865;DHT22;19219;44.500;11.188;2022-08-19T10:39:06;26.50;99.90
32865;DHT22;19219;44.500;11.188;2022-08-19T10:41:35;26.30;99.90
32865;DHT22;19219;44.500;11.188;2022-08-19T10:44:10;26.40;99.90
32865;DHT22;19219;44.500;11.188;2022-08-19T10:46:39;26.70;99.90
32865;DHT22;19219;44.500;11.188;2022-08-19T10:49:07;26.90;99.90
32865;DHT22;19219;44.500;11.188;2022-08-19T10:51:34;27.10;99.90
32865;DHT22;19219;44.500;11.188;2022-08-19T10:54:18;26.80;99.90
32865;DHT22;19219;44.500;11.188;2022-08-19T10:56:44;26.40;99.90
32865;DHT22;19219;44.500;11.188;2022-08-19T10:59:22;26.40;99.90
32865;DHT22;19219;44.500;11.188;2022-08-19T11:01:50;26.80;99.90
32865;DHT22;19219;44.500;11.188;2022-08-19T11:04:18;27.00;99.90
32865;DHT22;19219;44.500;11.188;2022-08-19T11:06:46;27.20;99.90
32865;DHT22;19219;44.500;11.188;2022-08-19T11:09:14;27.30;99.90
32865;DHT22;19219;44.500;11.188;2022-08-19T11:11:41;27.30;99.90
32865;DHT22;19219;44.500;11.188;2022-08-19T11:14:12;27.40;99.90
32865;DHT22;19219;44.500;11.188;2022-08-19T11:16:38;27.40;99.90
32865;DHT22;19219;44.500;11.188;2022-08-19T11:19:05;27.30;99.90
32865;DHT22;19219;44.500;11.188;2022-08-19T11:21:35;27.40;99.90
32865;DHT22;19219;44.500;11.188;2022-08-19T11:24:04;27.50;99.90
32865;DHT22;19219;44.500;11.188;2022-08-19T11:26:31;27.50;99.90
32865;DHT22;19219;44.500;11.188;2022-08-19T11:28:58;27.30;99.90
32865;DHT22;19219;44.500;11.188;2022-08-19T11:31:28;27.00;99.90
32865;DHT22;19219;44.500;11.188;2022-08-19T11:33:59;26.80;99.90
32865;DHT22;19219;44.500;11.188;2022-08-19T11:36:26;26.50;99.90
32865;DHT22;19219;44.500;11.188;2022-08-19T11:38:52;26.10;99.90
32865;DHT22;19219;44.500;11.188;2022-08-19T11:41:20;26.00;99.90
32865;DHT22;19219;44.500;11.188;2022-08-19T11:43:46;26.00;99.90
32865;DHT22;19219;44.500;11.188;2022-08-19T11:46:13;26.10;99.90
32865;DHT22;19219;44.500;11.188;2022-08-19T11:48:39;26.20;99.90
32865;DHT22;19219;44.500;11.188;2022-08-19T11:51:14;26.20;99.90
32865;DHT22;19219;44.500;11.188;2022-08-19T11:53:40;26.20;99.90
32865;DHT22;19219;44.500;11.188;2022-08-19T11:56:08;25.90;99.90
32865;DHT22;19219;44.500;11.188;2022-08-19T11:58:34;26.00;99.90
32865;DHT22;19219;44.500;11.188;2022-08-19T12:01:00;26.00;99.90
32865;DHT22;19219;44.500;11.188;2022-08-19T12:03:26;25.90;99.90
32865;DHT22;19219;44.500;11.188;2022-08-19T12:05:51;26.10;99.90
32865;DHT22;19219;44.500;11.188;2022-08-19T12:08:18;26.30;99.90
32865;DHT22;19219;44.500;11.188;2022-08-19T12:10:44;26.20;99.90
32865;DHT22;19219;44.500;11.188;2022-08-19T12:13:11;26.30;99.90
32865;DHT22;19219;44.500;11.188;2022-08-19T12:15:40;26.40;99.90
32865;DHT22;19219;44.500;11.188;2022-08-19T12:18:10;26.50;99.90
32865;DHT22;19219;44.500;11.188;2022-08-19T12:20:38;26.70;99.90
32865;DHT22;19219;44.500;11.188;2022-08-19T12:23:06;26.80;99.90
32865;DHT22;19219;44.500;11.188;2022-08-19T12:25:32;26.90;99.90
32865;DHT22;19219;44.500;11.188;2022-08-19T12:27:58;26.60;99.90
32865;DHT22;19219;44.500;11.188;2022-08-19T12:30:24;26.40;99.90
32865;DHT22;19219;44.500;11.188;2022-08-19T12:32:50;26.30;99.90
32865;DHT22;19219;44.500;11.188;2022-08-19T12:35:16;26.30;99.90
32865;DHT22;19219;44.500;11.188;2022-08-19T12:37:43;26.50;99.90
32865;DHT22;19219;44.500;11.188;2022-08-19T12:40:10;26.50;99.90
32865;DHT22;19219;44.500;11.188;2022-08-19T12:42:38;26.40;99.90
32865;DHT22;19219;44.500;11.188;2022-08-19T12:45:08;26.20;99.90
32865;DHT22;19219;44.500;11.188;2022-08-19T12:47:34;26.10;99.90
32865;DHT22;19219;44.500;11.188;2022-08-19T12:50:00;26.10;99.90
32865;DHT22;19219;44.500;11.188;2022-08-19T12:52:26;26.20;99.90
32865;DHT22;19219;44.500;11.188;2022-08-19T12:54:54;26.30;99.90
32865;DHT22;19219;44.500;11.188;2022-08-19T12:57:25;26.40;99.90
32865;DHT22;19219;44.500;11.188;2022-08-19T12:59:54;26.30;99.90
32865;DHT22;19219;44.500;11.188;2022-08-19T13:02:20;26.30;99.90
32865;DHT22;19219;44.500;11.188;2022-08-19T13:04:46;26.20;99.90
32865;DHT22;19219;44.500;11.188;2022-08-19T13:07:12;26.20;99.90
32865;DHT22;19219;44.500;11.188;2022-08-19T13:09:37;26.40;99.90
32865;DHT22;19219;44.500;11.188;2022-08-19T13:12:06;26.50;99.90
32865;DHT22;19219;44.500;11.188;2022-08-19T13:14:35;26.60;99.90
32865;DHT22;19219;44.500;11.188;2022-08-19T13:17:01;26.70;99.90
32865;DHT22;19219;44.500;11.188;2022-08-19T13:19:27;26.60;99.90
32865;DHT22;19219;44.500;11.188;2022-08-19T13:21:53;26.50;99.90
32865;DHT22;19219;44.500;11.188;2022-08-19T13:24:21;26.40;99.90
32865;DHT22;19219;44.500;11.188;2022-08-19T13:26:46;26.30;99.90
32865;DHT22;19219;44.500;11.188;2022-08-19T13:29:13;26.40;99.90
32865;DHT22;19219;44.500;11.188;2022-08-19T13:31:58;26.20;99.90
32865;DHT22;19219;44.500;11.188;2022-08-19T13:34:42;26.10;99.90
32865;DHT22;19219;44.500;11.188;2022-08-19T13:37:07;26.00;99.90
32865;DHT22;19219;44.500;11.188;2022-08-19T13:39:34;26.00;99.90
32865;DHT22;19219;44.500;11.188;2022-08-19T13:42:01;26.10;99.90
32865;DHT22;19219;44.500;11.188;2022-08-19T13:44:28;26.20;99.90
32865;DHT22;19219;44.500;11.188;2022-08-19T13:47:02;26.40;99.90
32865;DHT22;19219;44.500;11.188;2022-08-19T13:49:32;26.60;99.90
32865;DHT22;19219;44.500;11.188;2022-08-19T13:51:58;26.60;99.90
32865;DHT22;19219;44.500;11.188;2022-08-19T13:54:24;26.70;99.90
32865;DHT22;19219;44.500;11.188;2022-08-19T13:56:50;26.70;99.90
32865;DHT22;19219;44.500;11.188;2022-08-19T13:59:15;26.80;99.90
32865;DHT22;19219;44.500;11.188;2022-08-19T14:01:41;26.70;99.90
32865;DHT22;19219;44.500;11.188;2022-08-19T14:04:07;26.70;99.90
32865;DHT22;19219;44.500;11.188;2022-08-19T14:06:34;26.60;99.90
32865;DHT22;19219;44.500;11.188;2022-08-19T14:08:59;26.60;99.90
32865;DHT22;19219;44.500;11.188;2022-08-19T14:11:27;26.50;99.90
32865;DHT22;19219;44.500;11.188;2022-08-19T14:13:53;26.40;99.90
32865;DHT22;19219;44.500;11.188;2022-08-19T14:16:19;26.40;99.90
32865;DHT22;19219;44.500;11.188;2022-08-19T14:18:45;26.40;99.90
32865;DHT22;19219;44.500;11.188;2022-08-19T14:21:19;26.40;99.90
32865;DHT22;19219;44.500;11.188;2022-08-19T14:23:45;26.40;99.90
32865;DHT22;19219;44.500;11.188;2022-08-19T14:26:14;26.50;99.90
32865;DHT22;19219;44.500;11.188;2022-08-19T14:28:40;26.60;99.90
32865;DHT22;19219;44.500;11.188;2022-08-19T14:31:13;26.70;99.90
32865;DHT22;19219;44.500;11.188;2022-08-19T14:33:42;26.70;99.90
32865;DHT22;19219;44.500;11.188;2022-08-19T14:36:08;26.60;99.90
32865;DHT22;19219;44.500;11.188;2022-08-19T14:38:34;26.50;99.90
32865;DHT22;19219;44.500;11.188;2022-08-19T14:43:33;26.40;99.90
32865;DHT22;19219;44.500;11.188;2022-08-19T14:45:59;26.50;99.90
32865;DHT22;19219;44.500;11.188;2022-08-19T14:48:25;26.40;99.90
32865;DHT22;19219;44.500;11.188;2022-08-19T14:50:51;26.40;99.90
32865;DHT22;19219;44.500;11.188;2022-08-19T14:53:17;26.40;99.90
32865;DHT22;19219;44.500;11.188;2022-08-19T14:55:44;26.40;99.90
32865;DHT22;19219;44.500;11.188;2022-08-19T14:58:10;26.50;99.90
32865;DHT22;19219;44.500;11.188;2022-08-19T15:00:36;26.40;99.90
32865;DHT22;19219;44.500;11.188;2022-08-19T15:03:02;26.30;99.90
32865;DHT22;19219;44.500;11.188;2022-08-19T15:05:27;26.20;99.90
32865;DHT22;19219;44.500;11.188;2022-08-19T15:07:53;26.30;99.90
32865;DHT22;19219;44.500;11.188;2022-08-19T15:10:20;26.30;99.90
32865;DHT22;19219;44.500;11.188;2022-08-19T15:12:48;26.20;99.90
32865;DHT22;19219;44.500;11.188;2022-08-19T15:15:15;26.00;99.90
32865;DHT22;19219;44.500;11.188;2022-08-19T15:17:43;26.00;99.90
32865;DHT22;19219;44.500;11.188;2022-08-19T15:20:10;26.00;99.90
32865;DHT22;19219;44.500;11.188;2022-08-19T15:22:38;26.10;99.90
32865;DHT22;19219;44.500;11.188;2022-08-19T15:25:05;26.00;99.90
32865;DHT22;19219;44.500;11.188;2022-08-19T15:27:32;25.90;99.90
32865;DHT22;19219;44.500;11.188;2022-08-19T15:29:57;25.80;99.90